Time;durP1;ratioP1;P1;durP2;ratioP2;P2;SDS_P1;SDS_P2;PMS_P1;PMS_P2;Temp;Humidity;BMP_temperature;BMP_pressure;BME280_temperature;BME280_humidity;BME280_pressure;Samples;Min_cycle;Max_cycle;Signal;HPM_P1;HPM_P2
2022/11/03 00:01:04;;;;;;;5.03;1.63;;;21.40;44.00;;;;;;5053806;28;20024;-55
2022/11/03 00:03:29;;;;;;;3.30;1.33;;;21.40;44.00;;;;;;5052953;28;20017;-56
2022/11/03 00:06:04;;;;;;;4.50;1.30;;;21.40;44.00;;;;;;5052677;28;20459;-55
2022/11/03 00:08:35;;;;;;;4.57;1.55;;;21.40;44.10;;;;;;5045557;28;20032;-54
2022/11/03 00:11:03;;;;;;;3.28;1.48;;;21.40;44.20;;;;;;5053362;28;20368;-54
2022/11/03 00:13:29;;;;;;;3.38;1.33;;;21.40;44.20;;;;;;5052884;28;20120;-56
2022/11/03 00:15:54;;;;;;;4.75;1.38;;;21.40;44.20;;;;;;5053946;28;20029;-55
2022/11/03 00:18:20;;;;;;;3.42;1.25;;;21.40;44.30;;;;;;5053686;28;20063;-55
2022/11/03 00:20:58;;;;;;;5.28;1.20;;;21.40;44.30;;;;;;5053403;28;20043;-53
2022/11/03 00:23:30;;;;;;;3.85;1.38;;;21.40;44.30;;;;;;5053848;28;20516;-55
2022/11/03 00:26:05;;;;;;;3.83;1.23;;;21.40;44.40;;;;;;5054575;28;20064;-54
2022/11/03 00:28:32;;;;;;;3.67;1.25;;;21.30;44.30;;;;;;5050921;28;20033;-53
2022/11/03 00:31:00;;;;;;;5.25;1.65;;;21.40;44.40;;;;;;5052385;28;20449;-53
2022/11/03 00:33:33;;;;;;;4.00;1.38;;;21.30;44.30;;;;;;5048761;28;20048;-56
2022/11/03 00:36:00;;;;;;;3.05;1.00;;;21.40;44.40;;;;;;5054428;28;20029;-55
2022/11/03 00:38:27;;;;;;;2.58;1.23;;;21.40;44.40;;;;;;5053368;28;20120;-55
2022/11/03 00:40:54;;;;;;;3.95;1.20;;;21.30;44.40;;;;;;5053281;28;20021;-55
2022/11/03 00:43:21;;;;;;;4.43;1.55;;;21.40;44.50;;;;;;5054181;28;20060;-55
2022/11/03 00:45:48;;;;;;;4.78;1.45;;;21.30;44.40;;;;;;5054006;28;20039;-54
2022/11/03 00:48:29;;;;;;;6.68;1.50;;;21.30;44.40;;;;;;5046594;28;20057;-53
2022/11/03 00:51:12;;;;;;;4.13;1.15;;;21.30;44.40;;;;;;5040705;28;20059;-56
2022/11/03 00:53:40;;;;;;;4.47;1.20;;;21.30;44.40;;;;;;5054585;28;20071;-57
2022/11/03 00:56:09;;;;;;;3.83;1.30;;;21.30;44.50;;;;;;5053606;28;20117;-55
2022/11/03 00:58:35;;;;;;;2.58;1.27;;;21.40;44.60;;;;;;5054173;28;20338;-57
2022/11/03 01:01:10;;;;;;;4.25;1.50;;;21.30;44.60;;;;;;5057088;28;20098;-55
2022/11/03 01:03:38;;;;;;;4.80;1.30;;;21.30;44.60;;;;;;5045303;28;20091;-54
2022/11/03 01:08:54;;;;;;;4.93;1.52;;;21.30;44.60;;;;;;5052974;28;20033;-56
2022/11/03 01:14:09;;;;;;;5.63;1.52;;;21.30;44.60;;;;;;5059517;28;20044;-57
2022/11/03 01:16:35;;;;;;;3.67;1.40;;;21.30;44.60;;;;;;5077460;28;20119;-55
2022/11/03 01:19:01;;;;;;;3.17;1.13;;;21.30;44.60;;;;;;5060009;28;20025;-55
2022/11/03 01:21:27;;;;;;;3.72;1.20;;;21.30;44.60;;;;;;5056722;28;20033;-57
2022/11/03 01:23:53;;;;;;;4.65;1.35;;;21.30;44.60;;;;;;5056308;28;20483;-58
2022/11/03 01:26:19;;;;;;;4.03;1.50;;;21.30;44.60;;;;;;5057387;28;20025;-53
2022/11/03 01:28:46;;;;;;;5.68;1.40;;;21.30;44.60;;;;;;5056964;28;20440;-54
2022/11/03 01:31:20;;;;;;;3.47;1.30;;;21.30;44.60;;;;;;5057122;28;20028;-58
2022/11/03 01:33:48;;;;;;;;;;;21.30;44.60;;;;;;5055297;28;20052;-55
2022/11/03 01:36:14;;;;;;;3.05;1.50;;;21.30;44.60;;;;;;5056829;28;19912;-52
2022/11/03 01:38:41;;;;;;;2.95;1.27;;;21.30;44.70;;;;;;5056393;28;20035;-57
2022/11/03 01:41:17;;;;;;;2.90;1.02;;;21.30;44.70;;;;;;5056646;28;20456;-55
2022/11/03 01:43:43;;;;;;;3.30;1.20;;;21.30;44.70;;;;;;5055841;28;20169;-57
2022/11/03 01:46:26;;;;;;;7.15;1.50;;;21.30;44.70;;;;;;5056891;28;20025;-56
2022/11/03 01:48:59;;;;;;;4.35;1.13;;;21.30;44.70;;;;;;5038664;28;20310;-55
2022/11/03 01:51:27;;;;;;;3.60;1.40;;;21.30;44.70;;;;;;5048567;28;20033;-57
2022/11/03 01:53:56;;;;;;;4.25;1.15;;;21.30;44.70;;;;;;5055946;28;20413;-58
2022/11/03 01:56:22;;;;;;;2.83;1.10;;;21.30;44.80;;;;;;5056891;28;20391;-54
2022/11/03 01:58:52;;;;;;;2.78;1.08;;;21.30;44.70;;;;;;5056302;28;20021;-57
2022/11/03 02:01:18;;;;;;;4.22;1.48;;;21.30;44.80;;;;;;5055662;28;20116;-57
2022/11/03 02:03:50;;;;;;;3.60;1.55;;;21.30;44.80;;;;;;5044874;28;20116;-55
2022/11/03 02:06:18;;;;;;;2.75;1.27;;;21.30;44.80;;;;;;5056086;28;20464;-57
2022/11/03 02:09:00;;;;;;;5.28;1.48;;;21.20;44.70;;;;;;5053268;28;20060;-56
2022/11/03 02:14:14;;;;;;;2.72;1.10;;;21.20;44.70;;;;;;5058355;28;20044;-56
2022/11/03 02:16:53;;;;;;;4.25;1.40;;;21.20;44.70;;;;;;5076263;28;20025;-55
2022/11/03 02:19:24;;;;;;;3.97;1.50;;;21.20;44.70;;;;;;5058671;28;20452;-55
2022/11/03 02:22:27;;;;;;;3.13;1.00;;;21.20;44.80;;;;;;5056102;28;20029;-55
2022/11/03 02:25:00;;;;;;;3.08;1.20;;;21.20;44.80;;;;;;5055060;28;20028;-56
2022/11/03 02:27:25;;;;;;;3.22;1.20;;;21.20;44.80;;;;;;5055672;28;20108;-57
2022/11/03 02:29:53;;;;;;;2.53;1.17;;;21.20;44.80;;;;;;5056041;28;20463;-55
2022/11/03 02:32:27;;;;;;;3.17;1.10;;;21.20;44.80;;;;;;5053635;28;20044;-54
2022/11/03 02:35:07;;;;;;;4.30;1.48;;;21.20;44.90;;;;;;5055509;28;20372;-55
2022/11/03 02:37:42;;;;;;;5.03;1.52;;;21.20;44.90;;;;;;5055839;28;20021;-55
2022/11/03 02:40:24;;;;;;;4.88;1.40;;;21.20;44.90;;;;;;5055853;28;20113;-55
2022/11/03 02:42:52;;;;;;;3.08;1.23;;;21.20;44.90;;;;;;5054848;28;20349;-54
2022/11/03 02:45:20;;;;;;;4.22;1.30;;;21.20;45.00;;;;;;5056029;28;20025;-56
2022/11/03 02:47:49;;;;;;;4.22;1.30;;;21.20;44.90;;;;;;5054705;28;20064;-52
2022/11/03 02:50:15;;;;;;;3.78;1.25;;;21.20;44.90;;;;;;5054876;28;20060;-55
2022/11/03 02:52:51;;;;;;;2.67;1.35;;;21.20;44.90;;;;;;5054466;28;20356;-53
2022/11/03 02:55:45;;;;;;;3.88;1.20;;;21.20;44.90;;;;;;5055972;28;20036;-49
2022/11/03 02:58:23;;;;;;;3.53;1.50;;;21.20;44.90;;;;;;5048817;28;20095;-57
2022/11/03 03:00:52;;;;;;;3.40;1.40;;;21.20;44.90;;;;;;5054014;28;20048;-58
2022/11/03 03:03:39;;;;;;;3.05;1.17;;;21.20;45.00;;;;;;5053238;28;20131;-56
2022/11/03 03:06:10;;;;;;;3.13;1.10;;;21.10;44.90;;;;;;5055566;28;20033;-58
2022/11/03 03:08:41;;;;;;;2.78;1.08;;;21.10;44.90;;;;;;5054207;28;20029;-56
2022/11/03 03:11:10;;;;;;;2.67;1.08;;;21.20;45.00;;;;;;5055576;28;20063;-58
2022/11/03 03:13:36;;;;;;;5.78;1.55;;;21.10;44.90;;;;;;5053935;28;20041;-56
2022/11/03 03:16:24;;;;;;;4.35;1.63;;;21.10;45.00;;;;;;5073572;28;20038;-56
2022/11/03 03:19:07;;;;;;;3.67;1.13;;;21.20;45.10;;;;;;5060860;28;20051;-56
2022/11/03 03:21:40;;;;;;;4.20;1.48;;;21.10;45.00;;;;;;5054554;28;20121;-57
2022/11/03 03:24:35;;;;;;;3.47;1.30;;;21.10;45.00;;;;;;5053366;28;20044;-56
2022/11/03 03:27:05;;;;;;;4.88;1.30;;;21.10;45.00;;;;;;5055040;28;20035;-54
2022/11/03 03:29:45;;;;;;;3.85;1.30;;;21.10;45.10;;;;;;5055169;28;20032;-57
2022/11/03 03:32:17;;;;;;;4.25;1.35;;;21.10;45.10;;;;;;5053849;28;20151;-57
2022/11/03 03:34:46;;;;;;;2.70;1.20;;;21.10;45.10;;;;;;5050713;28;20123;-55
2022/11/03 03:37:14;;;;;;;4.28;1.27;;;21.10;45.10;;;;;;5055078;28;20446;-58
2022/11/03 03:39:43;;;;;;;4.05;1.30;;;21.10;45.10;;;;;;5054821;28;20051;-54
2022/11/03 03:42:10;;;;;;;3.53;1.05;;;21.10;45.10;;;;;;5053948;28;20094;-55
2022/11/03 03:44:38;;;;;;;4.85;1.08;;;21.10;45.10;;;;;;5053860;28;20028;-55
2022/11/03 03:47:20;;;;;;;2.95;1.10;;;21.10;45.10;;;;;;5051211;28;20041;-55
2022/11/03 03:49:46;;;;;;;3.53;1.02;;;21.10;45.10;;;;;;5051395;28;20512;-56
2022/11/03 03:52:12;;;;;;;4.38;1.30;;;21.10;45.10;;;;;;5053902;28;20116;-57
2022/11/03 03:54:38;;;;;;;4.53;1.40;;;21.10;45.10;;;;;;5053894;28;20044;-56
2022/11/03 03:57:09;;;;;;;2.80;1.13;;;21.10;45.10;;;;;;5054354;28;20021;-58
2022/11/03 03:59:35;;;;;;;4.00;1.20;;;21.10;45.10;;;;;;5054657;28;20429;-57
2022/11/03 04:02:01;;;;;;;2.70;1.02;;;21.10;45.10;;;;;;5049202;28;20045;-54
2022/11/03 04:04:27;;;;;;;3.75;1.30;;;21.10;45.10;;;;;;5047418;28;20381;-56
2022/11/03 04:07:45;;;;;;;2.97;1.13;;;21.00;45.10;;;;;;5054687;28;20067;-55
2022/11/03 04:09:39;;;;;;;2.92;1.00;;;21.10;45.20;;;;;;5052653;28;20396;-57
2022/11/03 04:23:12;;;;;;;3.25;1.02;;;21.10;45.20;;;;;;5049777;28;20444;-57
2022/11/03 04:25:38;;;;;;;4.15;1.48;;;21.00;45.20;;;;;;5053923;28;20086;-55
2022/11/03 04:28:12;;;;;;;2.95;0.98;;;21.00;45.20;;;;;;5054556;28;20033;-58
2022/11/03 04:30:38;;;;;;;4.47;1.50;;;21.10;45.30;;;;;;5054429;28;20033;-54
2022/11/03 04:33:11;;;;;;;3.83;0.98;;;21.00;45.30;;;;;;5052925;28;20045;-56
2022/11/03 04:35:36;;;;;;;2.88;1.10;;;21.00;45.30;;;;;;5058381;28;20036;-59
2022/11/03 04:38:16;;;;;;;3.85;0.90;;;21.00;45.30;;;;;;5057454;28;20037;-58
2022/11/03 04:40:45;;;;;;;2.15;0.82;;;21.00;45.30;;;;;;5057752;28;20447;-53
2022/11/03 04:43:17;;;;;;;4.55;1.08;;;21.00;45.30;;;;;;5057226;28;20041;-56
2022/11/03 04:45:45;;;;;;;3.72;1.30;;;21.00;45.30;;;;;;5057533;28;20364;-58
2022/11/03 04:48:18;;;;;;;3.15;1.00;;;21.00;45.30;;;;;;5057596;28;20064;-56
2022/11/03 04:50:46;;;;;;;6.78;1.15;;;21.00;45.30;;;;;;5057504;28;20087;-58
2022/11/03 04:53:14;;;;;;;3.22;0.98;;;21.00;45.40;;;;;;5057125;28;20044;-57
2022/11/03 04:55:41;;;;;;;1.88;0.90;;;21.00;45.40;;;;;;5057672;28;20040;-57
2022/11/03 04:58:15;;;;;;;4.82;1.25;;;21.00;45.40;;;;;;5057378;28;20044;-56
2022/11/03 05:00:41;;;;;;;3.90;1.35;;;21.00;45.40;;;;;;5058187;28;20360;-53
2022/11/03 05:03:13;;;;;;;4.82;1.30;;;21.00;45.40;;;;;;5044014;28;20048;-57
2022/11/03 05:05:39;;;;;;;2.50;1.25;;;21.00;45.40;;;;;;5056660;28;20122;-55
2022/11/03 05:08:08;;;;;;;3.85;1.10;;;21.00;45.40;;;;;;5060085;28;20078;-56
2022/11/03 05:10:34;;;;;;;3.42;1.00;;;21.00;45.40;;;;;;5056710;28;20052;-57
2022/11/03 05:13:00;;;;;;;4.93;1.15;;;21.00;45.40;;;;;;5056455;28;20444;-54
2022/11/03 05:15:28;;;;;;;9.75;1.27;;;21.00;45.50;;;;;;5070642;28;20032;-57
2022/11/03 05:17:55;;;;;;;3.10;1.30;;;21.00;45.50;;;;;;5072021;28;20040;-54
2022/11/03 05:20:35;;;;;;;1.63;0.85;;;21.00;45.50;;;;;;5077250;28;20036;-53
2022/11/03 05:23:01;;;;;;;4.30;1.20;;;21.00;45.50;;;;;;5061757;28;20033;-56
2022/11/03 05:25:42;;;;;;;3.35;1.17;;;21.00;45.60;;;;;;5056654;28;20040;-57
2022/11/03 05:28:27;;;;;;;4.07;1.52;;;21.00;45.60;;;;;;5056910;28;20032;-56
2022/11/03 05:30:54;;;;;;;4.00;1.45;;;21.00;45.70;;;;;;5057396;28;20068;-57
2022/11/03 05:33:29;;;;;;;2.97;0.93;;;21.00;45.70;;;;;;5050253;28;20459;-57
2022/11/03 05:35:59;;;;;;;3.90;1.25;;;21.00;45.70;;;;;;5057075;28;20093;-56
2022/11/03 05:38:30;;;;;;;2.47;1.10;;;21.00;45.70;;;;;;5056728;28;20108;-53
2022/11/03 05:40:56;;;;;;;2.92;0.88;;;21.00;45.70;;;;;;5057029;28;20040;-54
2022/11/03 05:43:22;;;;;;;4.72;1.23;;;20.90;45.70;;;;;;5055766;28;20113;-56
2022/11/03 05:45:56;;;;;;;2.90;1.17;;;20.90;45.70;;;;;;5056847;28;20112;-55
2022/11/03 05:48:32;;;;;;;3.28;1.10;;;21.00;45.70;;;;;;5055140;28;20344;-53
2022/11/03 05:51:01;;;;;;;2.63;1.00;;;21.00;45.80;;;;;;5056661;28;20036;-56
2022/11/03 05:53:42;;;;;;;3.42;1.42;;;20.90;45.70;;;;;;5055999;28;20345;-57
2022/11/03 05:56:15;;;;;;;3.55;1.02;;;20.90;45.70;;;;;;5056466;28;20032;-57
2022/11/03 05:58:43;;;;;;;3.65;1.05;;;20.90;45.70;;;;;;5040766;28;20029;-58
2022/11/03 06:01:22;;;;;;;2.50;1.20;;;20.90;45.70;;;;;;5039207;28;20033;-53
2022/11/03 06:03:48;;;;;;;2.63;1.00;;;20.90;45.70;;;;;;5055412;28;20033;-57
2022/11/03 06:06:23;;;;;;;2.97;1.15;;;20.90;45.80;;;;;;5054959;28;20448;-56
2022/11/03 06:08:49;;;;;;;4.05;1.40;;;20.90;45.80;;;;;;5055460;28;20035;-56
2022/11/03 06:11:24;;;;;;;4.55;1.35;;;20.90;45.80;;;;;;5055108;28;20045;-58
2022/11/03 06:13:50;;;;;;;3.42;1.20;;;20.90;45.80;;;;;;5055447;28;20124;-55
2022/11/03 06:16:36;;;;;;;3.13;1.05;;;20.90;45.80;;;;;;5054916;28;20029;-54
2022/11/03 06:19:16;;;;;;;3.53;1.20;;;20.90;45.80;;;;;;5053837;28;20128;-53
2022/11/03 06:21:42;;;;;;;3.55;1.13;;;20.90;45.90;;;;;;5056168;28;20029;-54
2022/11/03 06:24:09;;;;;;;3.50;1.23;;;20.90;45.90;;;;;;5055018;28;20032;-57
2022/11/03 06:26:36;;;;;;;3.60;1.10;;;20.90;45.90;;;;;;5054507;28;20029;-54
2022/11/03 06:29:01;;;;;;;4.22;1.10;;;20.90;45.90;;;;;;5056464;28;20115;-57
2022/11/03 06:31:30;;;;;;;4.00;1.20;;;20.90;46.00;;;;;;5054161;28;20421;-57
2022/11/03 06:33:59;;;;;;;2.55;0.90;;;20.90;46.00;;;;;;5049296;28;20103;-56
2022/11/03 06:36:30;;;;;;;3.65;1.00;;;20.90;46.00;;;;;;5036245;28;20044;-58
2022/11/03 06:39:12;;;;;;;4.60;1.27;;;20.90;46.00;;;;;;5036032;28;20380;-57
2022/11/03 06:41:38;;;;;;;3.25;1.02;;;20.90;46.10;;;;;;5036312;28;20370;-59
2022/11/03 06:44:29;;;;;;;2.78;1.30;;;20.90;46.10;;;;;;5036340;28;20437;-54
2022/11/03 06:47:00;;;;;;;5.53;1.60;;;20.90;46.10;;;;;;5047430;28;20032;-56
2022/11/03 06:49:31;;;;;;;5.75;1.70;;;20.90;46.10;;;;;;5044621;28;20058;-56
2022/11/03 06:52:01;;;;;;;3.42;1.30;;;20.90;46.10;;;;;;5051364;28;20104;-55
2022/11/03 06:54:27;;;;;;;3.63;1.27;;;20.90;46.10;;;;;;5054722;28;20044;-55
2022/11/03 06:56:52;;;;;;;5.03;1.75;;;20.90;46.10;;;;;;5052514;28;20025;-59
2022/11/03 06:59:19;;;;;;;6.10;1.60;;;20.90;46.10;;;;;;5051211;28;20054;-51
2022/11/03 07:01:47;;;;;;;6.53;1.60;;;20.90;46.10;;;;;;5053766;28;20333;-56
2022/11/03 07:04:20;;;;;;;5.28;1.60;;;20.90;46.10;;;;;;5054709;28;20333;-56
2022/11/03 07:06:47;;;;;;;5.10;1.60;;;20.90;46.10;;;;;;5049228;28;20029;-56
2022/11/03 07:09:21;;;;;;;4.80;1.40;;;20.90;46.20;;;;;;5054466;28;20040;-57
2022/11/03 07:11:50;;;;;;;4.20;1.25;;;20.90;46.20;;;;;;5053517;28;20064;-56
2022/11/03 07:14:21;;;;;;;5.00;1.92;;;20.90;46.20;;;;;;5046508;28;20033;-57
2022/11/03 07:16:58;;;;;;;3.63;1.40;;;20.90;46.20;;;;;;5051704;28;20349;-57
2022/11/03 07:19:32;;;;;;;3.78;1.35;;;20.90;46.20;;;;;;5052121;28;20040;-53
2022/11/03 07:22:04;;;;;;;4.10;1.60;;;20.80;46.10;;;;;;5048756;28;20029;-55
2022/11/03 07:24:32;;;;;;;4.47;1.30;;;20.90;46.30;;;;;;5063740;28;20039;-55
2022/11/03 07:27:20;;;;;;;3.65;1.38;;;20.90;46.40;;;;;;5061795;28;20029;-57
2022/11/03 07:29:48;;;;;;;3.50;1.77;;;20.90;46.40;;;;;;5018505;28;20041;-58
2022/11/03 07:32:29;;;;;;;4.85;1.77;;;20.90;46.40;;;;;;5052649;28;20041;-57
2022/11/03 07:35:05;;;;;;;8.07;1.88;;;20.90;46.40;;;;;;5050798;28;20441;-55
2022/11/03 07:37:31;;;;;;;4.13;1.42;;;20.90;46.50;;;;;;5017461;28;20037;-58
2022/11/03 07:39:57;;;;;;;4.90;1.65;;;20.90;46.50;;;;;;5047073;28;20399;-58
2022/11/03 07:42:26;;;;;;;5.38;1.48;;;20.90;47.20;;;;;;5054623;28;20037;-53
2022/11/03 07:44:58;;;;;;;6.13;1.75;;;20.90;47.30;;;;;;5026698;28;20036;-55
2022/11/03 07:47:26;;;;;;;3.90;1.50;;;20.90;46.60;;;;;;5036012;28;20076;-58
2022/11/03 07:49:55;;;;;;;5.90;1.90;;;20.90;46.70;;;;;;5034376;28;20038;-53
2022/11/03 07:52:25;;;;;;;5.82;1.60;;;20.90;46.70;;;;;;5040880;28;20353;-59
2022/11/03 07:54:58;;;;;;;;;;;20.90;46.70;;;;;;5052427;28;20444;-57
2022/11/03 07:57:26;;;;;;;5.30;1.55;;;20.90;46.70;;;;;;5052882;28;19923;-55
2022/11/03 08:00:08;;;;;;;5.25;1.83;;;20.90;46.80;;;;;;5039069;28;20364;-52
2022/11/03 08:02:53;;;;;;;4.13;1.40;;;20.90;46.80;;;;;;5034954;28;20124;-54
2022/11/03 08:05:19;;;;;;;6.82;2.08;;;20.90;46.80;;;;;;5054132;28;20033;-55
2022/11/03 08:07:45;;;;;;;4.22;1.50;;;20.90;46.90;;;;;;5052046;28;20040;-57
2022/11/03 08:10:12;;;;;;;5.15;1.67;;;20.90;46.90;;;;;;5035937;28;20100;-56
2022/11/03 08:12:38;;;;;;;4.72;1.77;;;20.90;46.90;;;;;;5059539;28;20437;-61
2022/11/03 08:15:04;;;;;;;5.25;1.75;;;20.90;46.90;;;;;;5047805;28;20035;-55
2022/11/03 08:17:30;;;;;;;5.45;1.58;;;20.90;46.90;;;;;;5058075;28;20052;-57
2022/11/03 08:19:56;;;;;;;7.30;2.50;;;20.90;47.00;;;;;;5061841;28;20029;-55
2022/11/03 08:22:24;;;;;;;5.53;2.30;;;20.90;47.00;;;;;;5057408;28;20044;-55
2022/11/03 08:24:51;;;;;;;7.00;2.55;;;20.90;46.90;;;;;;5058841;28;20051;-57
2022/11/03 08:27:18;;;;;;;6.97;2.38;;;20.90;46.90;;;;;;5058428;28;20041;-54
2022/11/03 08:29:44;;;;;;;7.55;2.63;;;20.90;46.90;;;;;;5058412;28;20037;-55
2022/11/03 08:32:09;;;;;;;10.25;2.85;;;20.90;46.90;;;;;;5057355;28;20044;-55
2022/11/03 08:34:35;;;;;;;9.50;2.20;;;20.90;46.80;;;;;;5056863;28;20029;-56
2022/11/03 08:37:01;;;;;;;6.60;2.60;;;20.90;46.80;;;;;;5051312;28;20108;-59
2022/11/03 08:39:27;;;;;;;6.47;2.28;;;20.90;46.80;;;;;;5058349;28;20043;-55
2022/11/03 08:41:52;;;;;;;5.57;2.30;;;20.90;46.80;;;;;;5049071;28;20057;-57
2022/11/03 08:44:18;;;;;;;7.40;2.13;;;21.00;46.90;;;;;;5056571;28;20441;-52
2022/11/03 08:46:44;;;;;;;6.30;2.42;;;20.90;46.80;;;;;;5046820;28;20199;-53
2022/11/03 08:49:10;;;;;;;6.97;2.40;;;20.90;46.80;;;;;;5056975;28;20024;-52
2022/11/03 08:51:36;;;;;;;6.20;2.17;;;20.90;46.80;;;;;;5055931;28;20463;-55
2022/11/03 08:54:02;;;;;;;4.57;1.83;;;20.90;46.80;;;;;;5056183;28;20046;-54
2022/11/03 08:56:27;;;;;;;6.03;1.70;;;20.90;46.80;;;;;;5036411;28;20021;-55
2022/11/03 08:58:53;;;;;;;5.13;1.85;;;21.00;46.80;;;;;;5046042;28;20033;-57
2022/11/03 09:01:19;;;;;;;6.38;2.08;;;20.90;47.40;;;;;;5037897;28;20029;-57
2022/11/03 09:03:45;;;;;;;4.95;1.75;;;20.90;46.70;;;;;;5053466;28;20456;-55
2022/11/03 09:06:10;;;;;;;4.78;2.05;;;21.00;46.80;;;;;;5055321;28;20037;-52
2022/11/03 09:08:37;;;;;;;5.72;1.70;;;21.00;46.80;;;;;;5056891;28;20053;-55
2022/11/03 09:11:02;;;;;;;4.45;1.98;;;20.90;46.80;;;;;;5057803;28;20033;-55
2022/11/03 09:13:28;;;;;;;4.85;1.92;;;20.90;46.80;;;;;;5056851;28;20097;-57
2022/11/03 09:15:54;;;;;;;3.17;1.70;;;21.00;46.80;;;;;;5057034;28;20444;-56
2022/11/03 09:18:21;;;;;;;4.95;1.75;;;21.00;46.80;;;;;;5060749;28;20145;-56
2022/11/03 09:20:47;;;;;;;5.78;1.73;;;21.00;46.90;;;;;;5037569;28;20037;-53
2022/11/03 09:23:13;;;;;;;5.32;1.77;;;21.00;46.80;;;;;;5037852;28;20029;-53
2022/11/03 09:25:38;;;;;;;4.95;1.88;;;21.00;46.80;;;;;;5044161;28;20620;-58
2022/11/03 09:28:04;;;;;;;5.00;1.95;;;21.00;46.80;;;;;;5049112;28;20040;-57
2022/11/03 09:30:30;;;;;;;4.63;1.70;;;21.00;46.80;;;;;;5057051;28;20437;-53
2022/11/03 09:32:56;;;;;;;5.20;1.90;;;21.00;46.80;;;;;;5057224;28;20032;-54
2022/11/03 09:35:22;;;;;;;4.32;2.03;;;21.00;46.80;;;;;;5057186;28;20108;-57
2022/11/03 09:37:47;;;;;;;4.57;1.77;;;21.00;46.80;;;;;;5057397;28;20032;-56
2022/11/03 09:40:15;;;;;;;6.40;2.17;;;21.00;46.80;;;;;;5055928;28;20033;-55
2022/11/03 09:42:42;;;;;;;4.38;1.90;;;21.00;46.80;;;;;;5056918;28;20043;-56
2022/11/03 09:45:09;;;;;;;5.25;1.88;;;21.00;46.80;;;;;;5057319;28;20063;-56
2022/11/03 09:47:38;;;;;;;5.03;1.95;;;21.00;46.80;;;;;;5056750;28;20055;-55
2022/11/03 09:50:04;;;;;;;7.82;1.90;;;21.10;46.80;;;;;;5056936;28;20063;-57
2022/11/03 09:52:30;;;;;;;4.35;1.60;;;21.10;46.80;;;;;;5055015;28;20079;-56
2022/11/03 09:54:58;;;;;;;3.67;1.60;;;21.10;46.80;;;;;;5054767;28;20029;-57
2022/11/03 09:57:27;;;;;;;6.85;2.13;;;21.10;46.80;;;;;;5054193;28;20037;-64
2022/11/03 09:59:54;;;;;;;5.38;1.50;;;21.10;46.80;;;;;;5056358;28;20125;-57
2022/11/03 10:02:28;;;;;;;6.88;1.90;;;21.00;46.70;;;;;;5053083;28;20048;-58
2022/11/03 10:04:56;;;;;;;6.18;1.50;;;21.10;46.70;;;;;;5051220;28;20471;-57
2022/11/03 10:07:24;;;;;;;5.70;1.83;;;21.10;46.70;;;;;;5051092;28;20017;-58
2022/11/03 10:09:52;;;;;;;4.45;1.52;;;21.10;46.70;;;;;;5050676;28;20041;-57
2022/11/03 10:12:20;;;;;;;4.88;1.73;;;21.10;46.60;;;;;;5051808;28;20187;-58
2022/11/03 10:14:46;;;;;;;2.72;1.38;;;21.10;46.50;;;;;;5050169;28;20422;-56
2022/11/03 10:17:24;;;;;;;2.67;1.15;;;21.10;46.50;;;;;;5048538;28;20025;-57
2022/11/03 10:19:55;;;;;;;4.22;1.55;;;21.10;46.40;;;;;;5052683;28;20025;-58
2022/11/03 10:22:21;;;;;;;4.38;1.48;;;21.10;46.30;;;;;;5050198;28;20036;-58
2022/11/03 10:24:48;;;;;;;4.97;1.80;;;21.10;46.30;;;;;;5051881;28;20029;-57
2022/11/03 10:27:25;;;;;;;3.97;1.40;;;21.10;46.30;;;;;;5051114;28;20041;-58
2022/11/03 10:30:11;;;;;;;5.50;1.55;;;21.10;46.30;;;;;;5050627;28;20032;-55
2022/11/03 10:32:37;;;;;;;3.00;1.17;;;21.10;46.30;;;;;;5048178;28;20164;-57
2022/11/03 10:35:32;;;;;;;3.72;1.63;;;21.10;46.30;;;;;;5048327;28;20127;-57
2022/11/03 10:38:37;;;;;;;3.70;1.23;;;21.20;46.40;;;;;;5044086;28;20061;-54
2022/11/03 10:41:12;;;;;;;3.20;1.20;;;21.10;46.30;;;;;;5050650;28;20032;-58
2022/11/03 10:43:39;;;;;;;3.25;1.33;;;21.20;46.30;;;;;;5049774;28;20029;-57
2022/11/03 10:46:11;;;;;;;3.58;1.42;;;21.10;46.80;;;;;;5050529;28;20025;-57
2022/11/03 10:48:37;;;;;;;4.40;1.65;;;21.20;46.20;;;;;;5048726;28;20108;-56
2022/11/03 10:51:03;;;;;;;3.25;1.40;;;21.10;46.10;;;;;;5049532;28;20104;-54
2022/11/03 10:53:30;;;;;;;2.67;1.23;;;21.20;46.10;;;;;;5051313;28;20045;-56
2022/11/03 10:55:56;;;;;;;2.42;1.17;;;21.20;46.10;;;;;;5049794;28;20071;-57
2022/11/03 10:58:23;;;;;;;4.38;1.40;;;21.20;46.70;;;;;;5050777;28;20052;-57
2022/11/03 11:00:49;;;;;;;4.22;1.50;;;21.20;46.10;;;;;;5050824;28;20028;-56
2022/11/03 11:03:14;;;;;;;4.30;1.48;;;21.20;46.00;;;;;;5050498;28;20342;-55
2022/11/03 11:05:45;;;;;;;2.55;1.05;;;21.20;46.00;;;;;;5050031;28;20124;-54
2022/11/03 11:08:13;;;;;;;3.05;1.00;;;21.10;46.00;;;;;;5049898;28;20033;-57
2022/11/03 11:10:43;;;;;;;4.88;1.40;;;21.20;46.00;;;;;;5050759;28;20024;-70
2022/11/03 11:13:18;;;;;;;3.08;1.45;;;21.20;46.00;;;;;;5049832;28;20388;-55
2022/11/03 11:15:49;;;;;;;3.45;1.00;;;21.20;46.10;;;;;;5049468;28;20223;-59
2022/11/03 11:18:27;;;;;;;3.28;1.45;;;21.20;46.10;;;;;;5045046;28;20131;-55
2022/11/03 11:20:57;;;;;;;4.20;1.42;;;21.20;46.30;;;;;;5049243;28;20028;-56
2022/11/03 11:23:26;;;;;;;3.45;1.80;;;21.20;46.40;;;;;;5050072;28;20063;-58
2022/11/03 11:26:13;;;;;;;3.53;1.27;;;21.20;46.40;;;;;;5053699;28;20079;-57
2022/11/03 11:28:40;;;;;;;4.28;1.58;;;21.20;46.40;;;;;;5048907;28;20032;-56
2022/11/03 11:31:31;;;;;;;3.97;1.45;;;21.20;46.40;;;;;;5045180;28;20027;-53
2022/11/03 11:34:09;;;;;;;4.47;1.30;;;21.20;46.40;;;;;;5046215;28;20135;-58
2022/11/03 11:36:39;;;;;;;3.22;1.65;;;21.20;46.40;;;;;;5049628;28;20120;-55
2022/11/03 11:39:27;;;;;;;3.92;1.60;;;21.20;46.40;;;;;;5043285;28;20036;-57
2022/11/03 11:42:16;;;;;;;6.75;1.58;;;21.20;46.40;;;;;;5047566;28;20033;-60
2022/11/03 11:44:42;;;;;;;4.45;1.50;;;21.20;46.40;;;;;;5048974;28;20075;-62
2022/11/03 11:47:39;;;;;;;5.05;1.60;;;21.30;46.60;;;;;;5047053;28;20025;-62
2022/11/03 11:50:05;;;;;;;3.75;1.38;;;21.30;46.90;;;;;;5045036;28;20033;-63
2022/11/03 11:52:41;;;;;;;3.08;1.40;;;21.30;47.00;;;;;;5047843;28;20047;-62
2022/11/03 11:55:31;;;;;;;2.20;1.10;;;21.40;47.10;;;;;;5047739;28;20450;-64
2022/11/03 11:57:59;;;;;;;3.22;1.50;;;21.50;46.90;;;;;;5048266;28;20086;-61
2022/11/03 12:00:34;;;;;;;4.80;1.27;;;21.50;46.50;;;;;;5048730;28;20067;-59
2022/11/03 12:03:02;;;;;;;2.72;1.13;;;21.60;46.40;;;;;;5048618;28;20132;-62
2022/11/03 12:05:32;;;;;;;2.75;1.10;;;21.70;46.20;;;;;;5047842;28;20033;-64
2022/11/03 12:07:58;;;;;;;3.10;1.48;;;21.90;46.00;;;;;;5047194;28;20071;-61
2022/11/03 12:10:30;;;;;;;3.35;1.30;;;21.90;45.70;;;;;;5045366;28;20033;-59
2022/11/03 12:12:58;;;;;;;4.35;1.52;;;22.10;45.60;;;;;;5047495;28;20079;-63
2022/11/03 12:15:55;;;;;;;5.75;0.98;;;22.10;45.30;;;;;;5054517;28;20041;-62
2022/11/03 12:18:38;;;;;;;3.88;1.25;;;22.30;45.20;;;;;;5050744;28;20064;-60
2022/11/03 12:21:09;;;;;;;3.60;1.30;;;22.40;45.10;;;;;;5048694;28;20138;-59
2022/11/03 12:23:40;;;;;;;3.33;1.10;;;22.50;44.90;;;;;;5042417;28;20033;-58
2022/11/03 12:26:28;;;;;;;4.10;1.10;;;22.50;44.70;;;;;;5047182;28;20029;-55
2022/11/03 12:28:54;;;;;;;3.80;1.30;;;22.60;44.50;;;;;;5048474;28;20053;-60
2022/11/03 12:31:21;;;;;;;5.63;1.50;;;22.70;44.30;;;;;;5050245;28;20036;-62
2022/11/03 12:33:47;;;;;;;3.60;1.25;;;22.70;44.20;;;;;;5049240;28;20044;-62
2022/11/03 12:36:13;;;;;;;2.10;1.10;;;22.80;44.10;;;;;;5050267;28;20029;-57
2022/11/03 12:38:39;;;;;;;4.05;1.25;;;22.80;43.90;;;;;;5047618;28;20025;-63
2022/11/03 12:43:52;;;;;;;2.67;1.20;;;23.00;43.60;;;;;;5046341;28;20025;-58
2022/11/03 12:46:20;;;;;;;4.20;1.30;;;23.10;43.50;;;;;;5047151;28;20468;-61
2022/11/03 12:48:47;;;;;;;2.80;1.10;;;23.10;43.30;;;;;;5048879;28;20118;-58
2022/11/03 12:51:21;;;;;;;3.65;1.02;;;23.20;43.30;;;;;;5046641;28;20452;-61
2022/11/03 12:53:49;;;;;;;3.28;1.40;;;23.20;43.20;;;;;;5043973;28;20100;-61
2022/11/03 12:56:16;;;;;;;2.50;1.20;;;23.30;43.10;;;;;;5050980;28;20079;-61
2022/11/03 12:58:42;;;;;;;2.13;1.08;;;23.30;43.00;;;;;;5051827;28;20029;-65
2022/11/03 13:01:08;;;;;;;2.85;1.20;;;23.40;43.00;;;;;;5052911;28;20033;-61
2022/11/03 13:03:35;;;;;;;3.40;1.50;;;23.40;42.90;;;;;;5051435;28;20024;-60
2022/11/03 13:06:03;;;;;;;3.40;1.10;;;23.50;42.70;;;;;;5050675;28;20020;-61
2022/11/03 13:08:30;;;;;;;2.92;1.15;;;23.50;42.60;;;;;;5054779;28;20025;-55
2022/11/03 13:10:56;;;;;;;3.05;1.10;;;23.50;42.40;;;;;;5057588;28;20021;-59
2022/11/03 13:13:22;;;;;;;3.45;0.90;;;23.60;42.20;;;;;;5057620;28;20041;-59
2022/11/03 13:15:48;;;;;;;2.15;0.98;;;23.60;42.10;;;;;;5057451;28;20112;-54
2022/11/03 13:18:13;;;;;;;2.10;0.80;;;23.60;41.90;;;;;;5056308;28;20544;-60
2022/11/03 13:20:40;;;;;;;2.30;0.93;;;23.60;41.80;;;;;;5051649;28;20033;-56
2022/11/03 13:23:06;;;;;;;2.42;0.82;;;23.60;41.70;;;;;;5037420;28;20033;-59
2022/11/03 13:25:32;;;;;;;2.47;0.80;;;23.60;41.50;;;;;;5056307;28;20128;-57
2022/11/03 13:27:58;;;;;;;3.17;1.33;;;23.60;41.40;;;;;;5046917;28;20457;-58